sensor_id;sensor_type;location;lat;lon;timestamp;P1;durP1;ratioP1;P2;durP2;ratioP2
10120;SDS011;5100;45.176;5.714;2023-03-01T00:01:30;13.03;;;11.93;;
10120;SDS011;5100;45.176;5.714;2023-03-01T00:03:57;13.07;;;11.87;;
10120;SDS011;5100;45.176;5.714;2023-03-01T00:06:24;12.77;;;11.73;;
10120;SDS011;5100;45.176;5.714;2023-03-01T00:08:51;12.80;;;11.70;;
10120;SDS011;5100;45.176;5.714;2023-03-01T00:13:44;11.97;;;10.97;;
10120;SDS011;5100;45.176;5.714;2023-03-01T00:16:12;13.23;;;11.93;;
10120;SDS011;5100;45.176;5.714;2023-03-01T00:18:40;13.27;;;12.17;;
10120;SDS011;5100;45.176;5.714;2023-03-01T00:21:06;13.63;;;12.40;;
10120;SDS011;5100;45.176;5.714;2023-03-01T00:23:35;12.80;;;11.77;;
10120;SDS011;5100;45.176;5.714;2023-03-01T00:26:05;13.33;;;12.23;;
10120;SDS011;5100;45.176;5.714;2023-03-01T00:28:32;13.63;;;12.43;;
10120;SDS011;5100;45.176;5.714;2023-03-01T00:31:06;14.00;;;12.60;;
10120;SDS011;5100;45.176;5.714;2023-03-01T00:33:34;13.93;;;12.73;;
10120;SDS011;5100;45.176;5.714;2023-03-01T00:36:00;13.17;;;12.03;;
10120;SDS011;5100;45.176;5.714;2023-03-01T00:38:26;12.80;;;11.70;;
10120;SDS011;5100;45.176;5.714;2023-03-01T00:40:53;12.73;;;11.73;;
10120;SDS011;5100;45.176;5.714;2023-03-01T00:43:20;13.07;;;11.97;;
10120;SDS011;5100;45.176;5.714;2023-03-01T00:45:47;13.43;;;12.33;;
10120;SDS011;5100;45.176;5.714;2023-03-01T00:48:13;12.83;;;11.73;;
10120;SDS011;5100;45.176;5.714;2023-03-01T00:50:39;13.33;;;12.17;;
10120;SDS011;5100;45.176;5.714;2023-03-01T00:53:05;13.87;;;12.67;;
10120;SDS011;5100;45.176;5.714;2023-03-01T00:55:32;13.93;;;12.63;;
10120;SDS011;5100;45.176;5.714;2023-03-01T00:57:58;13.83;;;12.70;;
10120;SDS011;5100;45.176;5.714;2023-03-01T01:00:24;13.23;;;12.13;;
10120;SDS011;5100;45.176;5.714;2023-03-01T01:02:54;14.67;;;13.27;;
10120;SDS011;5100;45.176;5.714;2023-03-01T01:05:20;14.63;;;13.40;;
10120;SDS011;5100;45.176;5.714;2023-03-01T01:07:47;14.13;;;12.93;;
10120;SDS011;5100;45.176;5.714;2023-03-01T01:10:14;14.00;;;12.80;;
10120;SDS011;5100;45.176;5.714;2023-03-01T01:12:43;14.47;;;13.13;;
10120;SDS011;5100;45.176;5.714;2023-03-01T01:15:11;14.17;;;12.97;;
10120;SDS011;5100;45.176;5.714;2023-03-01T01:17:40;13.37;;;12.27;;
10120;SDS011;5100;45.176;5.714;2023-03-01T01:20:06;13.30;;;12.10;;
10120;SDS011;5100;45.176;5.714;2023-03-01T01:22:32;14.03;;;12.83;;
10120;SDS011;5100;45.176;5.714;2023-03-01T01:24:59;14.20;;;12.90;;
10120;SDS011;5100;45.176;5.714;2023-03-01T01:27:25;14.70;;;13.30;;
10120;SDS011;5100;45.176;5.714;2023-03-01T01:29:52;14.80;;;13.47;;
10120;SDS011;5100;45.176;5.714;2023-03-01T01:32:19;13.90;;;12.57;;
10120;SDS011;5100;45.176;5.714;2023-03-01T01:34:45;15.13;;;13.63;;
10120;SDS011;5100;45.176;5.714;2023-03-01T01:37:11;14.30;;;13.10;;
10120;SDS011;5100;45.176;5.714;2023-03-01T01:39:38;14.90;;;13.63;;
10120;SDS011;5100;45.176;5.714;2023-03-01T01:53:39;17.07;;;15.67;;
10120;SDS011;5100;45.176;5.714;2023-03-01T01:56:07;16.83;;;15.33;;
10120;SDS011;5100;45.176;5.714;2023-03-01T01:58:36;16.77;;;15.27;;
10120;SDS011;5100;45.176;5.714;2023-03-01T02:01:03;16.63;;;15.20;;
10120;SDS011;5100;45.176;5.714;2023-03-01T02:03:31;16.93;;;15.43;;
10120;SDS011;5100;45.176;5.714;2023-03-01T02:06:12;16.87;;;15.27;;
10120;SDS011;5100;45.176;5.714;2023-03-01T02:08:45;17.10;;;15.70;;
10120;SDS011;5100;45.176;5.714;2023-03-01T02:11:14;17.27;;;15.67;;
10120;SDS011;5100;45.176;5.714;2023-03-01T02:13:40;17.67;;;16.17;;
10120;SDS011;5100;45.176;5.714;2023-03-01T02:16:08;17.53;;;15.93;;
10120;SDS011;5100;45.176;5.714;2023-03-01T02:18:36;16.77;;;15.27;;
10120;SDS011;5100;45.176;5.714;2023-03-01T02:23:31;17.40;;;15.90;;
10120;SDS011;5100;45.176;5.714;2023-03-01T02:28:40;16.73;;;15.17;;
10120;SDS011;5100;45.176;5.714;2023-03-01T02:31:09;17.27;;;15.77;;
10120;SDS011;5100;45.176;5.714;2023-03-01T02:33:55;17.30;;;15.77;;
10120;SDS011;5100;45.176;5.714;2023-03-01T02:36:24;17.40;;;15.90;;
10120;SDS011;5100;45.176;5.714;2023-03-01T02:38:55;17.30;;;15.80;;
10120;SDS011;5100;45.176;5.714;2023-03-01T02:41:26;17.43;;;15.93;;
10120;SDS011;5100;45.176;5.714;2023-03-01T02:43:56;18.03;;;16.50;;
10120;SDS011;5100;45.176;5.714;2023-03-01T02:46:23;17.33;;;15.73;;
10120;SDS011;5100;45.176;5.714;2023-03-01T02:48:54;18.37;;;16.60;;
10120;SDS011;5100;45.176;5.714;2023-03-01T02:56:36;17.37;;;15.90;;
10120;SDS011;5100;45.176;5.714;2023-03-01T02:59:03;17.33;;;15.83;;
10120;SDS011;5100;45.176;5.714;2023-03-01T03:01:31;16.90;;;15.50;;
10120;SDS011;5100;45.176;5.714;2023-03-01T03:04:09;18.77;;;17.17;;
10120;SDS011;5100;45.176;5.714;2023-03-01T03:06:52;17.67;;;16.17;;
10120;SDS011;5100;45.176;5.714;2023-03-01T03:09:18;17.43;;;15.93;;
10120;SDS011;5100;45.176;5.714;2023-03-01T03:11:45;17.77;;;16.07;;
10120;SDS011;5100;45.176;5.714;2023-03-01T03:14:13;18.47;;;16.70;;
10120;SDS011;5100;45.176;5.714;2023-03-01T03:16:41;18.33;;;16.67;;
10120;SDS011;5100;45.176;5.714;2023-03-01T03:19:12;18.03;;;16.33;;
10120;SDS011;5100;45.176;5.714;2023-03-01T03:21:38;18.40;;;16.80;;
10120;SDS011;5100;45.176;5.714;2023-03-01T03:24:05;17.53;;;16.03;;
10120;SDS011;5100;45.176;5.714;2023-03-01T03:26:31;18.53;;;16.93;;
10120;SDS011;5100;45.176;5.714;2023-03-01T03:28:58;18.57;;;16.87;;
10120;SDS011;5100;45.176;5.714;2023-03-01T03:31:24;18.20;;;16.57;;
10120;SDS011;5100;45.176;5.714;2023-03-01T03:33:51;18.23;;;16.63;;
10120;SDS011;5100;45.176;5.714;2023-03-01T03:36:17;18.43;;;16.83;;
10120;SDS011;5100;45.176;5.714;2023-03-01T03:38:46;18.27;;;16.67;;
10120;SDS011;5100;45.176;5.714;2023-03-01T03:41:12;17.40;;;15.90;;
10120;SDS011;5100;45.176;5.714;2023-03-01T03:43:39;18.63;;;17.00;;
10120;SDS011;5100;45.176;5.714;2023-03-01T03:46:09;18.93;;;17.23;;
10120;SDS011;5100;45.176;5.714;2023-03-01T03:48:37;19.73;;;18.03;;
10120;SDS011;5100;45.176;5.714;2023-03-01T03:51:05;18.50;;;16.90;;
10120;SDS011;5100;45.176;5.714;2023-03-01T03:53:32;19.13;;;17.43;;
10120;SDS011;5100;45.176;5.714;2023-03-01T03:55:58;18.47;;;16.87;;
10120;SDS011;5100;45.176;5.714;2023-03-01T03:58:24;19.43;;;17.63;;
10120;SDS011;5100;45.176;5.714;2023-03-01T04:00:53;17.67;;;16.17;;
10120;SDS011;5100;45.176;5.714;2023-03-01T04:03:24;19.70;;;18.00;;
10120;SDS011;5100;45.176;5.714;2023-03-01T04:05:51;19.10;;;17.40;;
10120;SDS011;5100;45.176;5.714;2023-03-01T04:08:19;18.23;;;16.63;;
10120;SDS011;5100;45.176;5.714;2023-03-01T04:10:49;19.80;;;18.10;;
10120;SDS011;5100;45.176;5.714;2023-03-01T04:13:18;18.10;;;16.60;;
10120;SDS011;5100;45.176;5.714;2023-03-01T04:15:46;18.77;;;17.10;;
10120;SDS011;5100;45.176;5.714;2023-03-01T04:18:19;19.20;;;17.40;;
10120;SDS011;5100;45.176;5.714;2023-03-01T04:20:46;18.70;;;17.10;;
10120;SDS011;5100;45.176;5.714;2023-03-01T04:23:16;18.57;;;16.97;;
10120;SDS011;5100;45.176;5.714;2023-03-01T04:25:51;19.10;;;17.50;;
10120;SDS011;5100;45.176;5.714;2023-03-01T04:28:22;18.13;;;16.43;;
10120;SDS011;5100;45.176;5.714;2023-03-01T04:30:55;19.50;;;17.80;;
10120;SDS011;5100;45.176;5.714;2023-03-01T04:33:23;20.20;;;18.50;;
10120;SDS011;5100;45.176;5.714;2023-03-01T04:35:50;19.00;;;17.20;;
10120;SDS011;5100;45.176;5.714;2023-03-01T04:38:17;19.33;;;17.53;;
10120;SDS011;5100;45.176;5.714;2023-03-01T04:40:44;19.53;;;17.63;;
10120;SDS011;5100;45.176;5.714;2023-03-01T04:43:11;19.97;;;18.17;;
10120;SDS011;5100;45.176;5.714;2023-03-01T04:45:41;19.65;;;18.05;;
10120;SDS011;5100;45.176;5.714;2023-03-01T04:48:07;19.03;;;17.37;;
10120;SDS011;5100;45.176;5.714;2023-03-01T04:50:33;19.30;;;17.63;;
10120;SDS011;5100;45.176;5.714;2023-03-01T04:53:00;19.67;;;17.90;;
10120;SDS011;5100;45.176;5.714;2023-03-01T04:55:26;19.33;;;17.57;;
10120;SDS011;5100;45.176;5.714;2023-03-01T04:57:53;18.20;;;16.60;;
10120;SDS011;5100;45.176;5.714;2023-03-01T05:00:20;19.37;;;17.77;;
10120;SDS011;5100;45.176;5.714;2023-03-01T05:05:14;20.27;;;18.47;;
10120;SDS011;5100;45.176;5.714;2023-03-01T05:07:41;19.30;;;17.70;;
10120;SDS011;5100;45.176;5.714;2023-03-01T05:10:07;19.30;;;17.60;;
10120;SDS011;5100;45.176;5.714;2023-03-01T05:12:33;19.83;;;17.97;;
10120;SDS011;5100;45.176;5.714;2023-03-01T05:14:59;18.73;;;17.13;;
10120;SDS011;5100;45.176;5.714;2023-03-01T05:17:25;20.83;;;18.87;;
10120;SDS011;5100;45.176;5.714;2023-03-01T05:19:51;19.37;;;17.77;;
10120;SDS011;5100;45.176;5.714;2023-03-01T05:22:18;19.80;;;18.10;;
10120;SDS011;5100;45.176;5.714;2023-03-01T05:24:44;18.93;;;17.33;;
10120;SDS011;5100;45.176;5.714;2023-03-01T05:27:12;20.37;;;18.57;;
10120;SDS011;5100;45.176;5.714;2023-03-01T05:29:38;20.00;;;18.30;;
10120;SDS011;5100;45.176;5.714;2023-03-01T05:32:04;20.23;;;18.40;;
10120;SDS011;5100;45.176;5.714;2023-03-01T05:34:32;19.93;;;18.07;;
10120;SDS011;5100;45.176;5.714;2023-03-01T05:36:59;19.57;;;17.80;;
10120;SDS011;5100;45.176;5.714;2023-03-01T05:39:27;20.83;;;18.97;;
10120;SDS011;5100;45.176;5.714;2023-03-01T05:41:55;19.87;;;18.07;;
10120;SDS011;5100;45.176;5.714;2023-03-01T05:44:23;19.10;;;17.40;;
10120;SDS011;5100;45.176;5.714;2023-03-01T05:46:50;20.43;;;18.60;;
10120;SDS011;5100;45.176;5.714;2023-03-01T05:49:17;20.37;;;18.57;;
10120;SDS011;5100;45.176;5.714;2023-03-01T05:51:47;20.07;;;18.27;;
10120;SDS011;5100;45.176;5.714;2023-03-01T05:54:14;20.33;;;18.53;;
10120;SDS011;5100;45.176;5.714;2023-03-01T05:56:40;19.63;;;17.83;;
10120;SDS011;5100;45.176;5.714;2023-03-01T05:59:06;20.20;;;18.17;;
10120;SDS011;5100;45.176;5.714;2023-03-01T06:01:33;19.33;;;17.63;;
10120;SDS011;5100;45.176;5.714;2023-03-01T06:04:00;19.70;;;18.00;;
10120;SDS011;5100;45.176;5.714;2023-03-01T06:06:26;20.57;;;18.77;;
10120;SDS011;5100;45.176;5.714;2023-03-01T06:08:52;20.17;;;18.30;;
10120;SDS011;5100;45.176;5.714;2023-03-01T06:11:20;20.03;;;18.23;;
10120;SDS011;5100;45.176;5.714;2023-03-01T06:13:46;21.17;;;19.23;;
10120;SDS011;5100;45.176;5.714;2023-03-01T06:16:13;19.70;;;17.90;;
10120;SDS011;5100;45.176;5.714;2023-03-01T06:18:40;20.83;;;18.93;;
10120;SDS011;5100;45.176;5.714;2023-03-01T06:21:06;20.63;;;18.77;;
10120;SDS011;5100;45.176;5.714;2023-03-01T06:23:33;20.80;;;18.90;;
10120;SDS011;5100;45.176;5.714;2023-03-01T06:26:00;20.80;;;18.90;;
10120;SDS011;5100;45.176;5.714;2023-03-01T06:28:30;20.27;;;18.47;;
10120;SDS011;5100;45.176;5.714;2023-03-01T06:30:56;20.43;;;18.63;;
10120;SDS011;5100;45.176;5.714;2023-03-01T06:33:22;20.50;;;18.63;;
10120;SDS011;5100;45.176;5.714;2023-03-01T06:35:49;21.80;;;19.70;;
10120;SDS011;5100;45.176;5.714;2023-03-01T06:38:16;20.00;;;18.20;;
10120;SDS011;5100;45.176;5.714;2023-03-01T06:40:44;21.07;;;19.13;;
10120;SDS011;5100;45.176;5.714;2023-03-01T06:43:16;20.63;;;18.60;;
10120;SDS011;5100;45.176;5.714;2023-03-01T06:45:42;21.10;;;19.20;;
10120;SDS011;5100;45.176;5.714;2023-03-01T06:48:09;21.70;;;19.70;;
10120;SDS011;5100;45.176;5.714;2023-03-01T06:50:35;20.73;;;18.90;;
10120;SDS011;5100;45.176;5.714;2023-03-01T06:53:01;21.13;;;19.23;;
10120;SDS011;5100;45.176;5.714;2023-03-01T06:55:28;21.40;;;19.50;;
10120;SDS011;5100;45.176;5.714;2023-03-01T06:57:55;20.90;;;19.00;;
10120;SDS011;5100;45.176;5.714;2023-03-01T07:00:22;21.33;;;19.40;;
10120;SDS011;5100;45.176;5.714;2023-03-01T07:02:48;21.20;;;19.20;;
10120;SDS011;5100;45.176;5.714;2023-03-01T07:05:14;21.87;;;19.97;;
10120;SDS011;5100;45.176;5.714;2023-03-01T07:07:40;21.33;;;19.43;;
10120;SDS011;5100;45.176;5.714;2023-03-01T07:10:07;21.03;;;19.03;;
10120;SDS011;5100;45.176;5.714;2023-03-01T07:12:33;22.60;;;20.30;;
10120;SDS011;5100;45.176;5.714;2023-03-01T07:14:59;22.20;;;20.13;;
10120;SDS011;5100;45.176;5.714;2023-03-01T07:17:25;20.90;;;19.10;;
10120;SDS011;5100;45.176;5.714;2023-03-01T07:19:51;22.07;;;19.87;;
10120;SDS011;5100;45.176;5.714;2023-03-01T07:22:17;20.77;;;18.83;;
10120;SDS011;5100;45.176;5.714;2023-03-01T07:24:44;21.77;;;19.80;;
10120;SDS011;5100;45.176;5.714;2023-03-01T07:27:10;22.07;;;20.07;;
10120;SDS011;5100;45.176;5.714;2023-03-01T07:29:36;21.20;;;19.10;;
10120;SDS011;5100;45.176;5.714;2023-03-01T07:32:03;20.63;;;18.63;;
10120;SDS011;5100;45.176;5.714;2023-03-01T07:34:30;20.80;;;18.80;;
10120;SDS011;5100;45.176;5.714;2023-03-01T07:36:56;21.27;;;19.17;;
10120;SDS011;5100;45.176;5.714;2023-03-01T07:39:22;21.43;;;19.33;;
10120;SDS011;5100;45.176;5.714;2023-03-01T07:41:49;21.03;;;19.07;;
10120;SDS011;5100;45.176;5.714;2023-03-01T07:44:19;20.73;;;18.83;;
10120;SDS011;5100;45.176;5.714;2023-03-01T07:46:46;22.17;;;19.83;;
10120;SDS011;5100;45.176;5.714;2023-03-01T07:49:12;22.30;;;20.10;;
10120;SDS011;5100;45.176;5.714;2023-03-01T07:51:38;20.20;;;18.40;;
10120;SDS011;5100;45.176;5.714;2023-03-01T07:54:04;20.87;;;18.77;;
10120;SDS011;5100;45.176;5.714;2023-03-01T07:56:30;23.13;;;17.53;;
10120;SDS011;5100;45.176;5.714;2023-03-01T07:58:56;23.80;;;18.87;;
10120;SDS011;5100;45.176;5.714;2023-03-01T08:01:25;20.93;;;18.70;;
10120;SDS011;5100;45.176;5.714;2023-03-01T08:03:51;19.67;;;17.67;;
10120;SDS011;5100;45.176;5.714;2023-03-01T08:06:17;19.77;;;17.83;;
10120;SDS011;5100;45.176;5.714;2023-03-01T08:08:44;20.03;;;18.03;;
10120;SDS011;5100;45.176;5.714;2023-03-01T08:11:11;20.57;;;17.47;;
10120;SDS011;5100;45.176;5.714;2023-03-01T08:13:39;19.57;;;16.73;;
10120;SDS011;5100;45.176;5.714;2023-03-01T08:16:10;19.73;;;17.87;;
10120;SDS011;5100;45.176;5.714;2023-03-01T08:18:37;20.33;;;18.53;;
10120;SDS011;5100;45.176;5.714;2023-03-01T08:21:04;21.53;;;19.43;;
10120;SDS011;5100;45.176;5.714;2023-03-01T08:23:34;20.85;;;18.83;;
10120;SDS011;5100;45.176;5.714;2023-03-01T08:26:10;21.30;;;19.20;;
10120;SDS011;5100;45.176;5.714;2023-03-01T08:28:42;22.87;;;20.60;;
10120;SDS011;5100;45.176;5.714;2023-03-01T08:33:42;23.17;;;20.70;;
10120;SDS011;5100;45.176;5.714;2023-03-01T08:36:09;22.20;;;20.20;;
10120;SDS011;5100;45.176;5.714;2023-03-01T08:38:35;22.93;;;20.60;;
10120;SDS011;5100;45.176;5.714;2023-03-01T08:41:02;21.50;;;19.50;;
10120;SDS011;5100;45.176;5.714;2023-03-01T08:43:29;21.73;;;19.63;;
10120;SDS011;5100;45.176;5.714;2023-03-01T08:45:55;22.63;;;20.53;;
10120;SDS011;5100;45.176;5.714;2023-03-01T08:48:21;24.37;;;21.93;;
10120;SDS011;5100;45.176;5.714;2023-03-01T08:50:48;22.20;;;20.13;;
10120;SDS011;5100;45.176;5.714;2023-03-01T08:53:14;24.23;;;21.90;;
10120;SDS011;5100;45.176;5.714;2023-03-01T08:55:40;28.67;;;24.67;;
10120;SDS011;5100;45.176;5.714;2023-03-01T08:58:06;27.33;;;24.70;;
10120;SDS011;5100;45.176;5.714;2023-03-01T09:00:32;23.47;;;21.10;;
10120;SDS011;5100;45.176;5.714;2023-03-01T09:03:00;29.83;;;26.80;;
10120;SDS011;5100;45.176;5.714;2023-03-01T09:05:26;24.63;;;22.23;;
10120;SDS011;5100;45.176;5.714;2023-03-01T09:07:52;22.13;;;20.00;;
10120;SDS011;5100;45.176;5.714;2023-03-01T09:10:18;22.53;;;20.47;;
10120;SDS011;5100;45.176;5.714;2023-03-01T09:12:44;21.87;;;19.87;;
10120;SDS011;5100;45.176;5.714;2023-03-01T09:15:10;23.40;;;21.10;;
10120;SDS011;5100;45.176;5.714;2023-03-01T09:17:36;23.10;;;21.10;;
10120;SDS011;5100;45.176;5.714;2023-03-01T09:20:02;24.30;;;22.00;;
10120;SDS011;5100;45.176;5.714;2023-03-01T09:22:32;22.63;;;20.53;;
10120;SDS011;5100;45.176;5.714;2023-03-01T09:24:59;22.90;;;20.80;;
10120;SDS011;5100;45.176;5.714;2023-03-01T09:27:26;24.43;;;21.93;;
10120;SDS011;5100;45.176;5.714;2023-03-01T09:29:52;22.33;;;20.13;;
10120;SDS011;5100;45.176;5.714;2023-03-01T09:32:18;23.00;;;20.90;;
10120;SDS011;5100;45.176;5.714;2023-03-01T09:34:44;22.27;;;20.27;;
10120;SDS011;5100;45.176;5.714;2023-03-01T09:37:29;23.50;;;21.10;;
10120;SDS011;5100;45.176;5.714;2023-03-01T09:39:55;22.83;;;20.83;;
10120;SDS011;5100;45.176;5.714;2023-03-01T09:42:21;22.70;;;20.50;;
10120;SDS011;5100;45.176;5.714;2023-03-01T09:44:48;22.47;;;20.40;;
10120;SDS011;5100;45.176;5.714;2023-03-01T09:47:19;21.33;;;19.23;;
10120;SDS011;5100;45.176;5.714;2023-03-01T09:52:46;22.57;;;20.37;;
10120;SDS011;5100;45.176;5.714;2023-03-01T09:55:34;23.40;;;21.13;;
10120;SDS011;5100;45.176;5.714;2023-03-01T10:04:28;22.03;;;20.00;;
10120;SDS011;5100;45.176;5.714;2023-03-01T10:09:51;26.50;;;23.70;;
10120;SDS011;5100;45.176;5.714;2023-03-01T10:12:18;23.50;;;21.13;;
10120;SDS011;5100;45.176;5.714;2023-03-01T10:17:48;21.97;;;19.97;;
10120;SDS011;5100;45.176;5.714;2023-03-01T10:20:26;22.33;;;20.30;;
10120;SDS011;5100;45.176;5.714;2023-03-01T10:22:59;22.33;;;20.23;;
10120;SDS011;5100;45.176;5.714;2023-03-01T10:28:06;22.47;;;20.10;;
10120;SDS011;5100;45.176;5.714;2023-03-01T10:30:45;22.27;;;20.17;;
10120;SDS011;5100;45.176;5.714;2023-03-01T10:33:14;21.70;;;19.80;;
10120;SDS011;5100;45.176;5.714;2023-03-01T10:35:56;22.03;;;19.97;;
10120;SDS011;5100;45.176;5.714;2023-03-01T10:38:22;20.13;;;18.23;;
10120;SDS011;5100;45.176;5.714;2023-03-01T10:40:50;23.60;;;20.37;;
10120;SDS011;5100;45.176;5.714;2023-03-01T10:43:19;21.90;;;19.70;;
10120;SDS011;5100;45.176;5.714;2023-03-01T10:45:46;22.50;;;20.27;;
10120;SDS011;5100;45.176;5.714;2023-03-01T10:50:43;22.50;;;20.33;;
10120;SDS011;5100;45.176;5.714;2023-03-01T10:55:56;21.73;;;19.73;;
10120;SDS011;5100;45.176;5.714;2023-03-01T10:58:28;22.90;;;20.60;;
10120;SDS011;5100;45.176;5.714;2023-03-01T11:01:40;21.67;;;19.57;;
10120;SDS011;5100;45.176;5.714;2023-03-01T11:03:41;23.43;;;21.20;;
10120;SDS011;5100;45.176;5.714;2023-03-01T11:14:03;21.10;;;19.17;;
10120;SDS011;5100;45.176;5.714;2023-03-01T11:16:43;21.00;;;18.90;;
10120;SDS011;5100;45.176;5.714;2023-03-01T11:21:39;22.23;;;20.13;;
10120;SDS011;5100;45.176;5.714;2023-03-01T11:27:00;22.43;;;20.10;;
10120;SDS011;5100;45.176;5.714;2023-03-01T11:29:35;25.77;;;20.47;;
10120;SDS011;5100;45.176;5.714;2023-03-01T11:32:07;23.30;;;20.90;;
10120;SDS011;5100;45.176;5.714;2023-03-01T11:34:38;20.47;;;18.33;;
10120;SDS011;5100;45.176;5.714;2023-03-01T11:40:19;23.30;;;21.00;;
10120;SDS011;5100;45.176;5.714;2023-03-01T11:43:01;23.83;;;21.50;;
10120;SDS011;5100;45.176;5.714;2023-03-01T11:45:52;24.93;;;22.57;;
10120;SDS011;5100;45.176;5.714;2023-03-01T11:50:57;24.33;;;21.90;;
10120;SDS011;5100;45.176;5.714;2023-03-01T11:56:29;23.37;;;21.37;;
10120;SDS011;5100;45.176;5.714;2023-03-01T12:07:47;23.87;;;21.60;;
10120;SDS011;5100;45.176;5.714;2023-03-01T12:32:33;24.50;;;21.70;;
10120;SDS011;5100;45.176;5.714;2023-03-01T12:41:09;24.00;;;21.77;;
10120;SDS011;5100;45.176;5.714;2023-03-01T12:44:12;22.43;;;20.17;;
10120;SDS011;5100;45.176;5.714;2023-03-01T12:46:47;23.50;;;21.27;;
10120;SDS011;5100;45.176;5.714;2023-03-01T12:49:37;23.63;;;21.10;;
10120;SDS011;5100;45.176;5.714;2023-03-01T12:52:19;21.87;;;19.77;;
10120;SDS011;5100;45.176;5.714;2023-03-01T12:55:42;23.63;;;21.40;;
10120;SDS011;5100;45.176;5.714;2023-03-01T12:58:06;23.33;;;21.10;;
10120;SDS011;5100;45.176;5.714;2023-03-01T13:06:40;23.07;;;20.83;;
10120;SDS011;5100;45.176;5.714;2023-03-01T13:17:48;22.67;;;20.57;;
10120;SDS011;5100;45.176;5.714;2023-03-01T13:20:16;24.50;;;21.53;;
10120;SDS011;5100;45.176;5.714;2023-03-01T13:22:45;22.43;;;20.23;;
10120;SDS011;5100;45.176;5.714;2023-03-01T13:25:15;22.77;;;20.67;;
10120;SDS011;5100;45.176;5.714;2023-03-01T13:27:41;23.53;;;21.00;;
10120;SDS011;5100;45.176;5.714;2023-03-01T13:30:38;22.97;;;20.83;;
10120;SDS011;5100;45.176;5.714;2023-03-01T13:35:51;21.33;;;19.33;;
10120;SDS011;5100;45.176;5.714;2023-03-01T13:41:06;21.27;;;19.27;;
10120;SDS011;5100;45.176;5.714;2023-03-01T13:43:37;23.20;;;20.87;;
10120;SDS011;5100;45.176;5.714;2023-03-01T13:46:09;22.87;;;20.47;;
10120;SDS011;5100;45.176;5.714;2023-03-01T13:48:48;22.10;;;19.90;;
10120;SDS011;5100;45.176;5.714;2023-03-01T13:51:20;22.40;;;20.20;;
10120;SDS011;5100;45.176;5.714;2023-03-01T13:53:50;22.30;;;20.10;;
10120;SDS011;5100;45.176;5.714;2023-03-01T13:56:19;22.17;;;20.17;;
10120;SDS011;5100;45.176;5.714;2023-03-01T13:58:53;21.33;;;19.20;;
10120;SDS011;5100;45.176;5.714;2023-03-01T14:03:57;22.37;;;20.10;;
10120;SDS011;5100;45.176;5.714;2023-03-01T14:06:24;23.13;;;20.87;;
10120;SDS011;5100;45.176;5.714;2023-03-01T14:09:00;22.57;;;20.37;;
10120;SDS011;5100;45.176;5.714;2023-03-01T14:19:58;22.50;;;20.40;;
10120;SDS011;5100;45.176;5.714;2023-03-01T14:22:28;22.20;;;19.97;;
10120;SDS011;5100;45.176;5.714;2023-03-01T14:24:59;21.80;;;19.70;;
10120;SDS011;5100;45.176;5.714;2023-03-01T14:27:28;20.63;;;18.73;;
10120;SDS011;5100;45.176;5.714;2023-03-01T14:29:59;22.57;;;20.43;;
10120;SDS011;5100;45.176;5.714;2023-03-01T14:32:28;22.27;;;20.07;;
10120;SDS011;5100;45.176;5.714;2023-03-01T14:34:57;22.73;;;20.73;;
10120;SDS011;5100;45.176;5.714;2023-03-01T14:37:34;21.03;;;19.03;;
10120;SDS011;5100;45.176;5.714;2023-03-01T14:40:01;21.67;;;19.37;;
10120;SDS011;5100;45.176;5.714;2023-03-01T14:42:31;21.93;;;19.73;;
10120;SDS011;5100;45.176;5.714;2023-03-01T14:45:00;21.03;;;18.90;;
10120;SDS011;5100;45.176;5.714;2023-03-01T14:47:30;23.07;;;20.87;;
10120;SDS011;5100;45.176;5.714;2023-03-01T14:50:10;21.40;;;19.30;;
10120;SDS011;5100;45.176;5.714;2023-03-01T14:52:46;22.23;;;19.97;;
10120;SDS011;5100;45.176;5.714;2023-03-01T14:55:27;23.57;;;21.27;;
10120;SDS011;5100;45.176;5.714;2023-03-01T14:57:54;22.63;;;20.60;;
10120;SDS011;5100;45.176;5.714;2023-03-01T15:00:26;23.10;;;20.80;;
10120;SDS011;5100;45.176;5.714;2023-03-01T15:02:54;23.37;;;21.37;;
10120;SDS011;5100;45.176;5.714;2023-03-01T15:05:27;24.43;;;22.17;;
10120;SDS011;5100;45.176;5.714;2023-03-01T15:07:56;23.20;;;20.87;;
10120;SDS011;5100;45.176;5.714;2023-03-01T15:10:25;21.90;;;19.70;;
10120;SDS011;5100;45.176;5.714;2023-03-01T15:13:12;20.67;;;18.57;;
10120;SDS011;5100;45.176;5.714;2023-03-01T15:15:52;21.47;;;19.20;;
10120;SDS011;5100;45.176;5.714;2023-03-01T15:18:28;23.40;;;20.33;;
10120;SDS011;5100;45.176;5.714;2023-03-01T15:23:49;21.70;;;19.23;;
10120;SDS011;5100;45.176;5.714;2023-03-01T15:26:25;23.23;;;19.47;;
10120;SDS011;5100;45.176;5.714;2023-03-01T15:28:57;22.07;;;19.87;;
10120;SDS011;5100;45.176;5.714;2023-03-01T15:31:26;22.13;;;19.90;;
10120;SDS011;5100;45.176;5.714;2023-03-01T15:33:52;21.57;;;19.43;;
10120;SDS011;5100;45.176;5.714;2023-03-01T15:36:40;25.73;;;19.90;;
10120;SDS011;5100;45.176;5.714;2023-03-01T15:47:40;23.53;;;20.13;;
10120;SDS011;5100;45.176;5.714;2023-03-01T15:50:16;25.20;;;20.57;;
10120;SDS011;5100;45.176;5.714;2023-03-01T15:52:46;22.03;;;19.63;;
10120;SDS011;5100;45.176;5.714;2023-03-01T15:55:16;21.13;;;19.07;;
10120;SDS011;5100;45.176;5.714;2023-03-01T15:57:50;22.33;;;20.13;;
10120;SDS011;5100;45.176;5.714;2023-03-01T16:00:38;21.97;;;19.97;;
10120;SDS011;5100;45.176;5.714;2023-03-01T16:03:05;24.53;;;21.90;;
10120;SDS011;5100;45.176;5.714;2023-03-01T16:05:35;21.90;;;19.70;;
10120;SDS011;5100;45.176;5.714;2023-03-01T16:08:02;22.70;;;20.47;;
10120;SDS011;5100;45.176;5.714;2023-03-01T16:10:29;22.80;;;20.73;;
10120;SDS011;5100;45.176;5.714;2023-03-01T16:12:56;21.97;;;19.83;;
10120;SDS011;5100;45.176;5.714;2023-03-01T16:15:28;22.00;;;19.83;;
10120;SDS011;5100;45.176;5.714;2023-03-01T16:17:57;24.10;;;21.70;;
10120;SDS011;5100;45.176;5.714;2023-03-01T16:20:26;23.47;;;20.83;;
10120;SDS011;5100;45.176;5.714;2023-03-01T16:22:53;22.67;;;19.13;;
10120;SDS011;5100;45.176;5.714;2023-03-01T16:25:20;22.10;;;19.93;;
10120;SDS011;5100;45.176;5.714;2023-03-01T16:27:47;22.37;;;20.00;;
10120;SDS011;5100;45.176;5.714;2023-03-01T16:30:15;21.73;;;19.53;;
10120;SDS011;5100;45.176;5.714;2023-03-01T16:32:45;21.07;;;18.97;;
10120;SDS011;5100;45.176;5.714;2023-03-01T16:35:13;23.23;;;20.97;;
10120;SDS011;5100;45.176;5.714;2023-03-01T16:37:40;21.87;;;19.60;;
10120;SDS011;5100;45.176;5.714;2023-03-01T16:40:15;22.57;;;20.47;;
10120;SDS011;5100;45.176;5.714;2023-03-01T16:42:44;22.67;;;20.37;;
10120;SDS011;5100;45.176;5.714;2023-03-01T16:45:10;21.27;;;19.23;;
10120;SDS011;5100;45.176;5.714;2023-03-01T16:47:36;23.30;;;21.10;;
10120;SDS011;5100;45.176;5.714;2023-03-01T16:50:02;24.00;;;21.53;;
10120;SDS011;5100;45.176;5.714;2023-03-01T16:52:29;21.77;;;19.67;;
10120;SDS011;5100;45.176;5.714;2023-03-01T16:54:55;22.33;;;20.13;;
10120;SDS011;5100;45.176;5.714;2023-03-01T16:57:21;23.47;;;21.27;;
10120;SDS011;5100;45.176;5.714;2023-03-01T16:59:50;22.30;;;20.10;;
10120;SDS011;5100;45.176;5.714;2023-03-01T17:02:19;22.47;;;20.27;;
10120;SDS011;5100;45.176;5.714;2023-03-01T17:04:45;22.27;;;20.07;;
10120;SDS011;5100;45.176;5.714;2023-03-01T17:07:18;21.90;;;19.80;;
10120;SDS011;5100;45.176;5.714;2023-03-01T17:09:44;21.93;;;19.93;;
10120;SDS011;5100;45.176;5.714;2023-03-01T17:12:13;22.53;;;20.30;;
10120;SDS011;5100;45.176;5.714;2023-03-01T17:14:40;22.83;;;20.60;;
10120;SDS011;5100;45.176;5.714;2023-03-01T17:17:07;22.53;;;20.37;;
10120;SDS011;5100;45.176;5.714;2023-03-01T17:19:34;22.10;;;19.90;;